Terminal Aerodrome Forecast
Issued by NWS

Home | Current Version | Previous Version | Text Only | Print | Product List | Glossary On
Versions: 1 2 3 4 5 6 7 8 9 10 11 12 13 14 15 16
000
FTUS43 KILX 301150
TAFCMI
TAF
KCMI 301150Z 3012/3112 VRB06KT 5SM -RA BR VCTS SCT020CB OVC035
     FM301600 17007KT P6SM VCSH OVC030
     FM301900 16012KT 6SM -SHRA VCTS OVC025CB
     FM302300 09014G22KT 3SM SHRA BR VCTS SCT006 OVC015CB
     FM310300 01020G30KT 4SM -RA BR OVC004
     FM310800 01018KT P6SM OVC004=

USA.gov is the U.S. government's official web portal to all federal, state and local government web resources and services.